Bridgewater, CT (06752)

11:36 PM EDT on August 20, 2014 (GMT -0400)
McCarthy Observatory | Change Station
CLOSE
Current Station
Personal Weather Station
Location: New Milford, CT
Elevation: 236 ft
Nearby Weather Stations

Elev 236 ft 41.53 °N, 73.43 °W | Updated 9 seconds ago

Clear
Clear
66.5 °F
Feels Like 66.5 °F
N
0.0
Wind Variable Wind from SSE
Gusts 0.0 mph

Today
High -- | Low -- °F
--% Chance of Precip.
Yesterday
High -- | Low -- °F
Precip. -- in
6:07 AM 7:45 PM
Waning Crescent, 17% visible
Pressure 30.06 in
Visibility 10.0 miles
Clouds Clear
Dew Point 64 °F
Humidity 92%
Rainfall 0.00 in
Snow Depth Not available.
UV 0 out of 12
Pollen 9.10 out of 12
Ozone Good
PM2.5 Good
Flu Activity Not available.
METAR KOXC 210315Z 00000KT 10SM CLR 18/14 A3006 RMK AO1

More Conditions Fewer Conditions

Pressure 30.06 in
Visibility 10.0 miles
Clouds Clear
Dew Point 64 °F
Humidity 92%
Rainfall 0.00 in
Snow Depth Not available.
UV 0 out of 12
Pollen 9.10 out of 12
Ozone Good
PM2.5 Good
Flu Activity Not available.
METAR KOXC 210315Z 00000KT 10SM CLR 18/14 A3006 RMK AO1

More Conditions Fewer Conditions

10-Day Weather Forecast

Almanac

Astronomy

Aug. 20, 2014 Rise Set
Actual Time 6:07 AM EDT 7:45 PM EDT
Civil Twilight 5:37 AM EDT 8:14 PM EDT
Nautical Twilight 5:02 AM EDT 8:50 PM EDT
Astronomical Twilight 4:24 AM EDT 9:28 PM EDT
Moon 1:43 AM EDT (8/20) 4:29 PM EDT (8/20)
Length of Visible Light 14h 36m
Length of Day
13h 38m
Tomorrow will be 2m 31s shorter.
Waning Crescent, 17% of the Moon is Illuminated
Today
Waning Crescent
Aug 25
New
Sep 2
First Quarter
Sep 8
Full
Sep 15
Last Quarter

Today's Extremes

State Highs State Lows

Community

WunderPhotos

Upload Photos

1,745,850 photos uploaded!

Nearby

Air Quality

  Air Quality AQ Index Pollutant
Yesterday Good
OZONE
Yesterday Good
PM2.5
Current Good
PM2.5
Current Good
OZONE
Wednesday Moderate
OZONE
Wednesday Good
PM2.5
Thursday Good
PM2.5
Thursday Good
OZONE

Snow Depth

Station Depth Elevation
No new snow has been reported.

Earthquake Activity

City Distance Mag. Time & Date
Deep River Center, Connecticut 47 miles 2.7 3:09 AM EDT
2014-08-14
Minimum magnitude displayed is 2.5.

Coastal Water Temperatures

Place Temperature
Bridgeport, CT 73.9 °F

Nearby Weather Stations